createdAt,value
2018-03-16T00:01:31.198Z,7.60
2018-03-16T00:03:58.764Z,7.60
2018-03-16T00:06:26.213Z,7.70
2018-03-16T00:08:53.678Z,7.60
2018-03-16T00:11:21.132Z,7.50
2018-03-16T00:13:48.601Z,7.50
2018-03-16T00:16:16.046Z,7.50
2018-03-16T00:18:43.524Z,7.60
2018-03-16T00:21:10.952Z,7.80
2018-03-16T00:23:38.412Z,7.70
2018-03-16T00:26:06.464Z,7.80
2018-03-16T00:28:34.689Z,8.00
2018-03-16T00:31:02.140Z,8.00
2018-03-16T00:33:29.611Z,8.00
2018-03-16T00:35:57.078Z,8.10
2018-03-16T00:38:24.557Z,8.20
2018-03-16T00:40:52.021Z,8.20
2018-03-16T00:43:19.471Z,8.20
2018-03-16T00:45:46.934Z,8.20
2018-03-16T00:48:14.424Z,8.10
2018-03-16T00:50:41.879Z,7.90
2018-03-16T00:53:09.323Z,7.90
2018-03-16T00:55:36.792Z,8.00
2018-03-16T00:58:04.251Z,8.00
2018-03-16T01:00:31.708Z,7.80
2018-03-16T01:02:59.172Z,7.80
2018-03-16T01:05:26.621Z,7.80
2018-03-16T01:07:54.071Z,7.90
2018-03-16T01:10:22.288Z,7.80
2018-03-16T01:12:50.539Z,7.90
2018-03-16T01:15:17.980Z,7.90
2018-03-16T01:17:45.433Z,7.90
2018-03-16T01:20:12.937Z,7.90
2018-03-16T01:22:41.184Z,7.90
2018-03-16T01:25:08.634Z,7.90
2018-03-16T01:27:36.165Z,7.80
2018-03-16T01:30:03.620Z,8.00
2018-03-16T01:32:31.208Z,8.00
2018-03-16T01:34:58.736Z,8.10
2018-03-16T01:37:26.179Z,8.10
2018-03-16T01:39:53.640Z,8.10
2018-03-16T01:42:21.102Z,8.10
2018-03-16T01:44:48.610Z,8.20
2018-03-16T01:47:17.471Z,8.30
2018-03-16T01:49:45.039Z,8.20
2018-03-16T01:52:12.484Z,8.30
2018-03-16T01:54:39.961Z,8.30
2018-03-16T01:57:07.409Z,8.20
2018-03-16T01:59:34.884Z,8.30
2018-03-16T02:02:02.340Z,8.40
2018-03-16T02:04:29.812Z,8.40
2018-03-16T02:06:58.030Z,8.40
2018-03-16T02:09:25.503Z,8.40
2018-03-16T02:11:52.958Z,8.40
2018-03-16T02:14:20.427Z,8.30
2018-03-16T02:16:47.916Z,8.40
2018-03-16T02:19:15.441Z,8.40
2018-03-16T02:21:42.891Z,8.30
2018-03-16T02:24:10.969Z,8.30
2018-03-16T02:26:38.420Z,8.30
2018-03-16T02:29:05.868Z,8.30
2018-03-16T02:31:33.339Z,8.30
2018-03-16T02:34:00.853Z,8.40
2018-03-16T02:36:28.314Z,8.30
2018-03-16T02:38:55.742Z,8.30
2018-03-16T02:41:23.216Z,8.30
2018-03-16T02:43:50.676Z,8.30
2018-03-16T02:46:18.143Z,8.30
2018-03-16T02:48:45.584Z,8.30
2018-03-16T02:51:13.045Z,8.30
2018-03-16T02:53:40.567Z,8.30
2018-03-16T02:56:09.389Z,8.20
2018-03-16T02:58:36.857Z,8.20
2018-03-16T03:01:04.404Z,8.20
2018-03-16T03:03:31.849Z,8.20
2018-03-16T03:05:59.290Z,8.30
2018-03-16T03:08:26.748Z,8.40
2018-03-16T03:10:54.197Z,8.30
2018-03-16T03:13:22.424Z,8.30
2018-03-16T03:15:49.891Z,8.30
2018-03-16T03:18:17.351Z,8.20
2018-03-16T03:20:44.806Z,8.30
2018-03-16T03:23:12.294Z,8.30
2018-03-16T03:25:40.490Z,8.30
2018-03-16T03:28:07.955Z,8.30
2018-03-16T03:30:35.409Z,8.30
2018-03-16T03:33:02.860Z,8.30
2018-03-16T03:35:30.310Z,8.30
2018-03-16T03:37:57.758Z,8.30
2018-03-16T03:40:25.218Z,8.20
2018-03-16T03:42:52.644Z,8.30
2018-03-16T03:45:20.889Z,8.30
2018-03-16T03:47:48.340Z,8.30
2018-03-16T03:50:15.832Z,8.30
2018-03-16T03:52:44.037Z,8.40
2018-03-16T03:55:12.403Z,8.40
2018-03-16T03:57:39.852Z,8.40
2018-03-16T04:00:08.124Z,8.30
2018-03-16T04:02:36.333Z,8.30
2018-03-16T04:05:03.796Z,8.30
2018-03-16T04:07:31.240Z,8.40
2018-03-16T04:09:58.716Z,8.40
2018-03-16T04:12:26.152Z,8.40
2018-03-16T04:14:53.621Z,8.30
2018-03-16T04:17:21.058Z,8.30
2018-03-16T04:19:48.517Z,8.30
2018-03-16T04:22:16.018Z,8.40
2018-03-16T04:24:43.447Z,8.40
2018-03-16T04:27:10.918Z,8.30
2018-03-16T04:29:38.373Z,8.20
2018-03-16T04:32:05.846Z,8.10
2018-03-16T04:34:33.365Z,8.10
2018-03-16T04:37:00.956Z,8.10
2018-03-16T04:39:29.321Z,8.10
2018-03-16T04:41:56.783Z,8.10
2018-03-16T04:44:24.231Z,8.10
2018-03-16T04:46:51.707Z,8.10
2018-03-16T04:49:19.231Z,8.20
2018-03-16T04:51:46.676Z,8.20
2018-03-16T04:54:14.150Z,8.20
2018-03-16T04:56:41.599Z,8.20
2018-03-16T04:59:09.042Z,8.30
2018-03-16T05:01:36.623Z,8.30
2018-03-16T05:04:04.112Z,8.30
2018-03-16T05:06:31.590Z,8.30
2018-03-16T05:08:59.998Z,8.30
2018-03-16T05:11:27.440Z,8.30
2018-03-16T05:13:54.924Z,8.20
2018-03-16T05:16:22.371Z,8.30
2018-03-16T05:18:49.872Z,8.30
2018-03-16T05:21:18.098Z,8.20
2018-03-16T05:23:45.542Z,8.30
2018-03-16T05:26:13.054Z,8.20
2018-03-16T05:28:40.507Z,8.20
2018-03-16T05:31:07.975Z,8.20
2018-03-16T05:33:36.197Z,8.20
2018-03-16T05:36:03.676Z,8.20
2018-03-16T05:38:31.114Z,8.10
2018-03-16T05:40:58.605Z,8.20
2018-03-16T05:43:26.057Z,8.20
2018-03-16T05:45:53.542Z,8.20
2018-03-16T05:48:21.849Z,8.10
2018-03-16T05:50:49.299Z,8.10
2018-03-16T05:53:16.770Z,8.10
2018-03-16T05:55:44.216Z,8.10
2018-03-16T05:58:11.677Z,8.00
2018-03-16T06:00:39.131Z,8.00
2018-03-16T06:03:06.621Z,8.10
2018-03-16T06:05:34.053Z,8.10
2018-03-16T06:08:01.514Z,8.10
2018-03-16T06:10:28.992Z,8.20
2018-03-16T06:12:56.466Z,8.20
2018-03-16T06:15:23.908Z,8.20
2018-03-16T06:17:51.431Z,8.20
2018-03-16T06:20:19.008Z,8.30
2018-03-16T06:22:46.491Z,8.30
2018-03-16T06:25:13.954Z,8.20
2018-03-16T06:27:41.408Z,8.30
2018-03-16T06:30:09.625Z,8.20
2018-03-16T06:32:37.319Z,8.20
2018-03-16T06:35:04.772Z,8.30
2018-03-16T06:37:32.221Z,8.20
2018-03-16T06:39:59.700Z,8.20
2018-03-16T06:42:27.232Z,8.20
2018-03-16T06:44:54.838Z,8.20
2018-03-16T06:47:22.935Z,8.20
2018-03-16T06:49:50.396Z,8.20
2018-03-16T06:52:17.851Z,8.30
2018-03-16T06:54:45.396Z,8.30
2018-03-16T06:57:12.977Z,8.30
2018-03-16T06:59:40.461Z,8.30
2018-03-16T07:02:07.912Z,8.30
2018-03-16T07:04:36.996Z,8.40
2018-03-16T07:07:04.461Z,8.40
2018-03-16T07:09:31.927Z,8.40
2018-03-16T07:11:59.396Z,8.40
2018-03-16T07:14:26.877Z,8.30
2018-03-16T07:16:54.332Z,8.40
2018-03-16T07:19:22.556Z,8.50
2018-03-16T07:21:50.039Z,8.50
2018-03-16T07:24:17.517Z,8.50
2018-03-16T07:26:49.012Z,8.30
2018-03-16T07:29:16.465Z,8.30
2018-03-16T07:31:43.928Z,8.20
2018-03-16T07:34:11.349Z,8.30
2018-03-16T07:36:38.826Z,8.30
2018-03-16T07:39:06.364Z,8.40
2018-03-16T07:41:33.820Z,8.40
2018-03-16T07:44:01.263Z,8.40
2018-03-16T07:46:28.741Z,8.40
2018-03-16T07:48:56.207Z,8.40
2018-03-16T07:51:23.726Z,8.30
2018-03-16T07:53:51.958Z,8.50
2018-03-16T07:56:19.455Z,8.50
2018-03-16T07:58:47.655Z,8.40
2018-03-16T08:01:15.135Z,8.40
2018-03-16T08:03:42.584Z,8.40
2018-03-16T08:06:10.069Z,8.40
2018-03-16T08:08:37.506Z,8.50
2018-03-16T08:11:04.984Z,8.40
2018-03-16T08:13:32.420Z,8.30
2018-03-16T08:15:59.898Z,8.30
2018-03-16T08:18:27.336Z,8.30
2018-03-16T08:20:54.785Z,8.30
2018-03-16T08:23:22.247Z,8.30
2018-03-16T08:25:49.692Z,8.40
2018-03-16T08:28:17.168Z,8.40
2018-03-16T08:30:44.604Z,8.50
2018-03-16T08:33:12.071Z,8.40
2018-03-16T08:35:39.507Z,8.50
2018-03-16T08:38:07.747Z,8.60
2018-03-16T08:40:35.959Z,8.60
2018-03-16T08:43:03.423Z,8.60
2018-03-16T08:45:31.652Z,8.50
2018-03-16T08:47:59.874Z,8.40
2018-03-16T08:50:27.328Z,8.50
2018-03-16T08:52:55.583Z,8.40
2018-03-16T08:55:23.017Z,8.50
2018-03-16T08:57:50.496Z,8.50
2018-03-16T09:00:17.963Z,8.60
2018-03-16T09:02:45.429Z,8.60
2018-03-16T09:05:13.661Z,8.60
2018-03-16T09:07:41.101Z,8.60
2018-03-16T09:10:09.333Z,8.90
2018-03-16T09:12:36.783Z,8.90
2018-03-16T09:15:04.248Z,8.90
2018-03-16T09:17:31.691Z,8.90
2018-03-16T09:19:59.167Z,8.90
2018-03-16T09:22:26.607Z,8.90
2018-03-16T09:24:54.096Z,8.90
2018-03-16T09:27:21.549Z,8.90
2018-03-16T09:29:49.780Z,8.90
2018-03-16T09:32:17.293Z,8.90
2018-03-16T09:34:45.528Z,9.00
2018-03-16T09:37:12.961Z,9.00
2018-03-16T09:39:40.440Z,9.00
2018-03-16T09:42:07.895Z,9.10
2018-03-16T09:44:35.363Z,9.30
2018-03-16T09:47:02.933Z,9.40
2018-03-16T09:49:30.408Z,9.40
2018-03-16T09:51:58.643Z,9.40
2018-03-16T09:54:26.106Z,9.40
2018-03-16T09:56:53.597Z,9.40
2018-03-16T09:59:21.822Z,9.40
2018-03-16T10:01:49.308Z,9.40
2018-03-16T10:04:16.759Z,9.50
2018-03-16T10:06:44.234Z,9.70
2018-03-16T10:09:11.687Z,9.70
2018-03-16T10:11:39.228Z,9.80
2018-03-16T10:14:07.798Z,9.90
2018-03-16T10:16:41.171Z,9.90
2018-03-16T10:19:08.671Z,10.00
2018-03-16T10:21:36.216Z,9.90
2018-03-16T10:24:04.545Z,9.90
2018-03-16T10:26:32.040Z,9.90
2018-03-16T10:28:59.527Z,9.90
2018-03-16T10:31:27.787Z,10.10
2018-03-16T10:33:55.999Z,10.10
2018-03-16T10:36:24.235Z,10.30
2018-03-16T10:38:51.737Z,10.30
2018-03-16T10:41:19.220Z,10.40
2018-03-16T10:43:46.740Z,10.50
2018-03-16T10:46:14.205Z,10.70
2018-03-16T10:48:41.677Z,10.90
2018-03-16T10:51:09.137Z,10.80
2018-03-16T10:53:36.605Z,11.00
2018-03-16T10:56:04.080Z,11.10
2018-03-16T10:58:31.561Z,11.10
2018-03-16T11:00:59.799Z,11.20
2018-03-16T11:03:33.031Z,11.10
2018-03-16T11:06:02.224Z,11.10
2018-03-16T11:08:30.910Z,11.20
2018-03-16T11:10:59.121Z,11.10
2018-03-16T11:13:26.663Z,11.10
2018-03-16T11:15:54.135Z,11.40
2018-03-16T11:18:21.618Z,11.10
2018-03-16T11:20:49.086Z,11.00
2018-03-16T11:23:16.669Z,11.00
2018-03-16T11:25:44.197Z,11.10
2018-03-16T11:28:11.649Z,11.00
2018-03-16T11:30:39.734Z,10.70
2018-03-16T11:33:07.335Z,10.70
2018-03-16T11:35:35.537Z,10.90
2018-03-16T11:38:03.010Z,10.80
2018-03-16T11:40:30.499Z,11.00
2018-03-16T11:42:57.985Z,10.90
2018-03-16T11:45:25.461Z,10.80
2018-03-16T11:47:52.956Z,10.70
2018-03-16T11:50:20.422Z,10.80
2018-03-16T11:52:47.943Z,11.00
2018-03-16T11:55:15.399Z,11.00
2018-03-16T11:57:42.845Z,11.10
2018-03-16T12:00:10.342Z,11.10
2018-03-16T12:02:37.781Z,11.20
2018-03-16T12:05:05.336Z,11.10
2018-03-16T12:07:32.781Z,10.90
2018-03-16T12:10:00.251Z,10.90
2018-03-16T12:12:27.721Z,11.00
2018-03-16T12:14:55.299Z,11.00
2018-03-16T12:17:22.753Z,11.10
2018-03-16T12:19:50.968Z,11.30
2018-03-16T12:22:18.461Z,11.30
2018-03-16T12:24:45.960Z,11.30
2018-03-16T12:27:13.451Z,11.30
2018-03-16T12:29:40.915Z,11.20
2018-03-16T12:32:08.383Z,11.20
2018-03-16T12:34:35.845Z,11.10
2018-03-16T12:37:04.773Z,11.10
2018-03-16T12:39:32.246Z,11.10
2018-03-16T12:41:59.723Z,11.10
2018-03-16T12:44:27.179Z,11.10
2018-03-16T12:46:54.651Z,11.20
2018-03-16T12:49:22.120Z,11.20
2018-03-16T12:51:49.599Z,11.30
2018-03-16T12:54:17.830Z,11.20
2018-03-16T12:56:45.286Z,11.20
2018-03-16T12:59:15.635Z,11.10
2018-03-16T13:01:46.872Z,11.00
2018-03-16T13:04:20.379Z,10.90
2018-03-16T13:06:55.562Z,10.80
2018-03-16T13:11:57.170Z,10.90
2018-03-16T13:14:24.661Z,10.80
2018-03-16T13:16:52.876Z,10.80
2018-03-16T13:19:20.364Z,10.80
2018-03-16T13:21:47.816Z,10.90
2018-03-16T13:24:15.273Z,11.10
2018-03-16T13:26:42.761Z,11.20
2018-03-16T13:29:11.480Z,11.40
2018-03-16T13:31:38.940Z,11.40
2018-03-16T13:34:06.395Z,11.50
2018-03-16T13:36:33.873Z,11.30
2018-03-16T13:39:01.390Z,11.00
2018-03-16T13:41:28.877Z,10.80
2018-03-16T13:43:56.340Z,10.70
2018-03-16T13:46:23.838Z,10.70
2018-03-16T13:48:52.101Z,10.60
2018-03-16T13:51:20.920Z,10.50
2018-03-16T13:53:49.144Z,10.40
2018-03-16T13:56:16.629Z,10.40
2018-03-16T13:58:44.849Z,10.40
2018-03-16T14:01:12.298Z,10.50
2018-03-16T14:03:39.768Z,10.40
2018-03-16T14:06:07.296Z,10.30
2018-03-16T14:08:34.764Z,10.30
2018-03-16T14:11:02.210Z,9.90
2018-03-16T14:13:29.672Z,10.00
2018-03-16T14:15:57.129Z,9.90
2018-03-16T14:18:24.648Z,9.70
2018-03-16T14:20:52.964Z,9.60
2018-03-16T14:23:20.420Z,9.60
2018-03-16T14:25:47.995Z,9.30
2018-03-16T14:28:15.457Z,9.50
2018-03-16T14:30:42.972Z,9.60
2018-03-16T14:33:11.208Z,9.60
2018-03-16T14:35:38.697Z,9.60
2018-03-16T14:38:06.924Z,9.90
2018-03-16T14:40:34.392Z,9.90
2018-03-16T14:43:01.839Z,9.90
2018-03-16T14:45:30.588Z,9.80
2018-03-16T14:47:58.061Z,9.90
2018-03-16T14:50:25.528Z,9.90
2018-03-16T14:52:52.984Z,9.90
2018-03-16T14:55:20.466Z,10.00
2018-03-16T14:57:47.916Z,9.80
2018-03-16T15:00:15.390Z,9.90
2018-03-16T15:02:42.877Z,9.90
2018-03-16T15:05:10.337Z,9.70
2018-03-16T15:07:37.807Z,9.70
2018-03-16T15:10:05.315Z,9.60
2018-03-16T15:12:32.708Z,9.50
2018-03-16T15:15:00.168Z,9.30
2018-03-16T15:17:27.621Z,9.20
2018-03-16T15:19:55.186Z,9.20
2018-03-16T15:22:22.693Z,9.00
2018-03-16T15:24:50.138Z,8.90
2018-03-16T15:27:17.605Z,8.80
2018-03-16T15:29:45.069Z,8.80
2018-03-16T15:32:13.289Z,8.50
2018-03-16T15:34:40.803Z,8.40
2018-03-16T15:37:08.295Z,8.30
2018-03-16T15:39:35.744Z,8.20
2018-03-16T15:42:03.218Z,8.20
2018-03-16T15:44:30.684Z,8.20
2018-03-16T15:46:58.165Z,8.10
2018-03-16T15:49:25.606Z,7.90
2018-03-16T15:51:53.065Z,7.90
2018-03-16T15:54:20.514Z,8.00
2018-03-16T15:56:48.001Z,7.90
2018-03-16T15:59:15.508Z,8.00
2018-03-16T16:01:42.973Z,7.90
2018-03-16T16:04:10.422Z,7.80
2018-03-16T16:06:37.916Z,7.80
2018-03-16T16:09:05.473Z,7.70
2018-03-16T16:11:32.959Z,7.60
2018-03-16T16:14:01.175Z,7.70
2018-03-16T16:16:28.618Z,7.60
2018-03-16T16:18:56.098Z,7.60
2018-03-16T16:21:24.312Z,7.60
2018-03-16T16:23:52.545Z,7.50
2018-03-16T16:26:20.016Z,7.50
2018-03-16T16:28:47.572Z,7.60
2018-03-16T16:31:15.008Z,7.50
2018-03-16T16:33:42.504Z,7.40
2018-03-16T16:36:10.077Z,7.50
2018-03-16T16:38:38.273Z,7.30
2018-03-16T16:41:05.739Z,7.30
2018-03-16T16:43:33.202Z,7.30
2018-03-16T16:46:00.656Z,7.30
2018-03-16T16:48:28.224Z,7.40
2018-03-16T16:50:55.674Z,7.30
2018-03-16T16:53:23.143Z,7.40
2018-03-16T16:55:50.685Z,7.30
2018-03-16T16:58:18.111Z,7.10
2018-03-16T17:00:46.341Z,7.20
2018-03-16T17:03:15.875Z,7.20
2018-03-16T17:05:43.478Z,7.20
2018-03-16T17:08:10.937Z,7.20
2018-03-16T17:10:38.440Z,7.20
2018-03-16T17:13:05.872Z,7.10
2018-03-16T17:15:33.351Z,7.00
2018-03-16T17:18:00.796Z,7.00
2018-03-16T17:20:28.245Z,7.00
2018-03-16T17:22:55.686Z,6.90
2018-03-16T17:25:23.629Z,6.90
2018-03-16T17:27:51.075Z,6.90
2018-03-16T17:30:18.551Z,6.80
2018-03-16T17:32:46.037Z,6.70
2018-03-16T17:35:13.520Z,6.80
2018-03-16T17:37:41.801Z,6.70
2018-03-16T17:40:10.036Z,6.60
2018-03-16T17:42:37.501Z,6.60
2018-03-16T17:45:04.945Z,6.60
2018-03-16T17:47:32.391Z,6.50
2018-03-16T17:49:59.828Z,6.50
2018-03-16T17:52:27.411Z,6.50
2018-03-16T17:54:54.856Z,6.40
2018-03-16T17:57:22.336Z,6.50
2018-03-16T17:59:49.765Z,6.50
2018-03-16T18:02:17.241Z,6.60
2018-03-16T18:04:44.739Z,6.50
2018-03-16T18:07:13.059Z,6.50
2018-03-16T18:09:40.502Z,6.50
2018-03-16T18:12:07.978Z,6.40
2018-03-16T18:14:35.472Z,6.30
2018-03-16T18:17:02.880Z,6.40
2018-03-16T18:19:30.342Z,6.40
2018-03-16T18:21:57.792Z,6.40
2018-03-16T18:24:25.288Z,6.40
2018-03-16T18:26:53.404Z,6.30
2018-03-16T18:29:20.878Z,6.20
2018-03-16T18:31:48.381Z,6.40
2018-03-16T18:34:15.820Z,6.40
2018-03-16T18:36:43.266Z,6.40
2018-03-16T18:39:10.721Z,6.10
2018-03-16T18:41:38.172Z,6.10
2018-03-16T18:44:06.367Z,6.10
2018-03-16T18:46:33.830Z,6.10
2018-03-16T18:49:01.280Z,6.10
2018-03-16T18:51:28.728Z,6.10
2018-03-16T18:53:56.202Z,6.00
2018-03-16T18:56:23.668Z,6.10
2018-03-16T18:58:51.879Z,5.90
2018-03-16T19:01:19.377Z,5.90
2018-03-16T19:03:46.806Z,5.90
2018-03-16T19:06:14.266Z,5.90
2018-03-16T19:08:41.712Z,5.80
2018-03-16T19:11:09.180Z,5.80
2018-03-16T19:13:36.628Z,5.70
2018-03-16T19:16:04.127Z,5.80
2018-03-16T19:18:31.712Z,5.80
2018-03-16T19:20:59.168Z,5.70
2018-03-16T19:23:26.607Z,5.60
2018-03-16T19:25:54.845Z,5.60
2018-03-16T19:28:22.313Z,5.60
2018-03-16T19:30:49.759Z,5.60
2018-03-16T19:33:17.258Z,5.50
2018-03-16T19:35:45.500Z,5.30
2018-03-16T19:38:12.955Z,5.20
2018-03-16T19:40:40.397Z,5.20
2018-03-16T19:43:07.855Z,5.10
2018-03-16T19:45:35.291Z,5.10
2018-03-16T19:48:02.768Z,5.00
2018-03-16T19:50:30.207Z,5.00
2018-03-16T19:52:58.431Z,5.00
2018-03-16T19:55:26.685Z,4.90
2018-03-16T19:57:54.138Z,4.90
2018-03-16T20:00:21.610Z,5.00
2018-03-16T20:02:49.685Z,4.90
2018-03-16T20:05:17.913Z,4.80
2018-03-16T20:07:45.355Z,4.80
2018-03-16T20:10:12.914Z,4.70
2018-03-16T20:12:40.368Z,4.80
2018-03-16T20:15:07.881Z,4.70
2018-03-16T20:17:35.337Z,4.60
2018-03-16T20:20:02.826Z,4.70
2018-03-16T20:22:30.306Z,4.60
2018-03-16T20:24:57.762Z,4.50
2018-03-16T20:27:25.220Z,4.50
2018-03-16T20:29:52.785Z,4.50
2018-03-16T20:32:20.233Z,4.50
2018-03-16T20:34:47.698Z,4.50
2018-03-16T20:37:15.193Z,4.40
2018-03-16T20:39:42.699Z,4.50
2018-03-16T20:42:10.264Z,4.40
2018-03-16T20:44:37.700Z,4.30
2018-03-16T20:47:05.244Z,4.30
2018-03-16T20:49:33.494Z,4.30
2018-03-16T20:52:00.969Z,4.30
2018-03-16T20:54:29.281Z,4.20
2018-03-16T20:56:56.796Z,4.20
2018-03-16T20:59:25.528Z,4.20
2018-03-16T21:01:53.021Z,4.20
2018-03-16T21:04:20.488Z,4.10
2018-03-16T21:06:48.004Z,4.00
2018-03-16T21:09:15.525Z,3.90
2018-03-16T21:11:43.137Z,3.80
2018-03-16T21:14:10.639Z,3.80
2018-03-16T21:16:44.823Z,3.80
2018-03-16T21:19:12.298Z,3.80
2018-03-16T21:21:40.658Z,3.70
2018-03-16T21:24:08.157Z,3.70
2018-03-16T21:26:35.627Z,3.70
2018-03-16T21:29:03.167Z,3.70
2018-03-16T21:31:30.651Z,3.60
2018-03-16T21:33:58.121Z,3.60
2018-03-16T21:36:25.634Z,3.60
2018-03-16T21:38:54.424Z,3.50
2018-03-16T21:41:21.898Z,3.50
2018-03-16T21:43:49.364Z,3.40
2018-03-16T21:46:16.899Z,3.40
2018-03-16T21:48:44.358Z,3.50
2018-03-16T21:51:11.829Z,3.40
2018-03-16T21:53:39.321Z,3.30
2018-03-16T21:56:06.964Z,3.30
2018-03-16T21:58:35.418Z,3.30
2018-03-16T22:01:02.884Z,3.30
2018-03-16T22:03:30.336Z,3.30
2018-03-16T22:05:57.815Z,3.30
2018-03-16T22:08:25.290Z,3.30
2018-03-16T22:10:52.820Z,3.10
2018-03-16T22:13:20.310Z,3.00
2018-03-16T22:15:47.784Z,3.10
2018-03-16T22:18:16.012Z,2.90
2018-03-16T22:20:43.484Z,2.90
2018-03-16T22:23:10.952Z,2.80
2018-03-16T22:25:38.432Z,2.80
2018-03-16T22:28:05.927Z,2.90
2018-03-16T22:30:33.442Z,2.90
2018-03-16T22:33:01.667Z,2.80
2018-03-16T22:35:29.244Z,2.80
2018-03-16T22:37:56.810Z,2.80
2018-03-16T22:40:24.333Z,2.80
2018-03-16T22:42:51.810Z,2.80
2018-03-16T22:45:19.258Z,2.80
2018-03-16T22:47:46.778Z,2.80
2018-03-16T22:50:14.229Z,2.80
2018-03-16T22:52:41.703Z,2.80
2018-03-16T22:55:09.168Z,2.90
2018-03-16T22:57:36.684Z,2.90
2018-03-16T23:00:04.902Z,2.90
2018-03-16T23:02:32.395Z,2.80
2018-03-16T23:04:59.855Z,2.80
2018-03-16T23:07:28.128Z,2.80
2018-03-16T23:09:55.600Z,2.80
2018-03-16T23:12:24.636Z,2.70
2018-03-16T23:14:52.395Z,2.70
2018-03-16T23:17:19.853Z,2.70
2018-03-16T23:19:47.312Z,2.70
2018-03-16T23:22:14.947Z,2.50
2018-03-16T23:24:42.437Z,2.60
2018-03-16T23:27:09.883Z,2.60
2018-03-16T23:29:37.366Z,2.60
2018-03-16T23:32:04.841Z,2.60
2018-03-16T23:34:32.343Z,2.60
2018-03-16T23:36:59.792Z,2.60
2018-03-16T23:39:27.304Z,2.50
2018-03-16T23:41:54.821Z,2.50
2018-03-16T23:44:22.260Z,2.40
2018-03-16T23:46:50.547Z,2.50
2018-03-16T23:49:18.010Z,2.50
2018-03-16T23:51:45.612Z,2.40
2018-03-16T23:54:13.836Z,2.50
2018-03-16T23:56:41.308Z,2.40
2018-03-16T23:59:08.784Z,2.50
